Time;durP1;ratioP1;P1;durP2;ratioP2;P2;SDS_P1;SDS_P2;PMS_P1;PMS_P2;Temp;Humidity;BMP_temperature;BMP_pressure;BME280_temperature;BME280_humidity;BME280_pressure;Samples;Min_cycle;Max_cycle;Signal;HPM_P1;HPM_P2
2023/05/01 04:23:11;;;;;;;;;15.50;13.50;;;;;17.45;55.50;101351.84;5051214;27;45483;-72
2023/05/01 04:25:37;;;;;;;;;13.75;13.50;;;;;17.74;55.26;101373.00;5045993;28;45747;-72
2023/05/01 04:28:03;;;;;;;;;14.25;11.25;;;;;17.73;54.57;101345.28;5046671;28;46264;-71
2023/05/01 04:30:30;;;;;;;;;13.25;13.25;;;;;17.89;54.77;101339.59;5049536;28;45440;-72
2023/05/01 04:32:56;;;;;;;;;14.75;13.00;;;;;18.26;54.15;101370.03;5041094;28;45467;-72
2023/05/01 04:35:21;;;;;;;;;11.00;10.50;;;;;18.42;54.06;101365.19;5047066;28;45678;-73
2023/05/01 04:37:46;;;;;;;;;12.50;12.50;;;;;18.50;53.79;101345.78;5049849;28;50010;-74
2023/05/01 04:40:12;;;;;;;;;11.25;10.75;;;;;18.69;53.41;101355.09;5050852;28;45437;-75
2023/05/01 04:42:37;;;;;;;;;12.50;12.25;;;;;18.99;53.68;101382.34;5050551;28;46039;-75
2023/05/01 04:45:03;;;;;;;;;12.25;12.25;;;;;19.20;53.06;101393.25;5045116;28;45839;-74
2023/05/01 04:47:29;;;;;;;;;10.25;10.25;;;;;19.25;52.65;101382.97;5045788;28;45504;-74
2023/05/01 04:49:54;;;;;;;;;11.75;11.75;;;;;19.27;52.70;101355.94;5045709;28;50188;-74
2023/05/01 04:52:19;;;;;;;;;11.50;11.50;;;;;19.59;52.97;101393.66;5046349;28;45458;-74
2023/05/01 04:54:45;;;;;;;;;12.50;11.50;;;;;19.44;52.57;101351.84;5045783;28;45481;-74
2023/05/01 04:57:10;;;;;;;;;12.25;10.75;;;;;19.75;52.52;101393.25;5046920;28;45607;-73
2023/05/01 04:59:35;;;;;;;;;11.50;10.25;;;;;19.64;52.46;101358.28;5049272;28;46155;-74
2023/05/01 05:02:00;;;;;;;;;10.00;10.00;;;;;19.65;52.26;101348.38;5047477;28;46611;-73
2023/05/01 05:04:26;;;;;;;;;9.75;9.75;;;;;20.05;51.45;101392.69;5046011;28;45611;-74
2023/05/01 05:06:52;;;;;;;;;11.50;11.50;;;;;20.12;51.79;101401.97;5046254;28;45566;-74
2023/05/01 05:09:17;;;;;;;;;12.75;12.75;;;;;19.97;51.40;101360.97;5043062;28;45570;-73
2023/05/01 05:11:43;;;;;;;;;10.75;10.75;;;;;20.01;51.18;101357.06;5050537;28;46403;-73
2023/05/01 05:14:09;;;;;;;;;10.00;10.00;;;;;20.14;51.14;101381.13;5047056;28;45411;-73
2023/05/01 05:16:35;;;;;;;;;12.00;10.75;;;;;20.29;51.23;101397.84;5050730;28;45501;-73
2023/05/01 05:19:00;;;;;;;;;12.00;11.00;;;;;20.29;51.05;101400.53;5047491;28;45610;-73
2023/05/01 05:21:25;;;;;;;;;13.00;11.00;;;;;20.21;50.85;101367.97;5045485;28;46563;-71
2023/05/01 05:23:51;;;;;;;;;13.50;11.50;;;;;20.31;50.87;101382.38;5052224;28;45540;-71
2023/05/01 05:26:17;;;;;;;;;9.50;8.25;;;;;20.34;51.09;101387.50;5042248;28;45566;-71
2023/05/01 05:28:42;;;;;;;;;11.75;11.75;;;;;20.27;51.00;101367.44;5041992;28;45818;-71
2023/05/01 05:31:08;;;;;;;;;10.50;10.50;;;;;20.55;50.81;101410.91;5041912;28;46260;-71
2023/05/01 05:33:33;;;;;;;;;12.00;10.75;;;;;20.38;50.45;101378.19;5037678;28;46021;-71
2023/05/01 05:35:59;;;;;;;;;12.50;12.50;;;;;20.33;50.66;101364.25;5036235;28;45300;-71
2023/05/01 05:38:24;;;;;;;;;11.50;11.25;;;;;20.64;50.60;101414.69;5035760;28;45492;-70
2023/05/01 05:40:50;;;;;;;;;13.75;11.00;;;;;20.45;50.81;101383.91;5031853;28;46224;-70
2023/05/01 05:43:15;;;;;;;;;12.00;11.25;;;;;20.50;50.34;101388.88;5026766;28;45582;-70
2023/05/01 05:45:41;;;;;;;;;11.75;11.50;;;;;20.72;50.70;101420.25;5034398;28;45455;-70
2023/05/01 05:48:06;;;;;;;;;12.25;11.00;;;;;20.53;50.39;101378.69;5035894;28;45899;-70
2023/05/01 05:50:31;;;;;;;;;9.00;8.25;;;;;20.76;50.35;101413.59;5031904;28;47709;-70
2023/05/01 05:52:57;;;;;;;;;8.25;8.00;;;;;20.69;50.44;101398.09;5032726;28;45679;-69
2023/05/01 05:55:22;;;;;;;;;7.25;7.25;;;;;20.54;50.37;101369.63;5032068;28;45677;-70
2023/05/01 05:57:47;;;;;;;;;13.25;11.50;;;;;20.65;49.98;101382.16;5034016;28;45688;-70
2023/05/01 06:00:14;;;;;;;;;9.50;9.50;;;;;20.78;50.51;101408.06;5030367;28;45749;-69
2023/05/01 06:02:39;;;;;;;;;10.75;9.00;;;;;20.62;50.04;101378.88;5030803;28;45646;-70
2023/05/01 06:05:05;;;;;;;;;9.25;8.00;;;;;20.86;50.61;101412.78;5025078;28;45658;-72
2023/05/01 06:07:30;;;;;;;;;14.75;12.50;;;;;20.87;50.10;101409.13;5032881;28;45549;-70
2023/05/01 06:10:01;;;;;;;;;10.00;10.00;;;;;20.88;49.97;101410.88;5031168;28;45435;-69
2023/05/01 06:12:27;;;;;;;;;9.75;9.75;;;;;20.88;50.40;101417.09;5028095;28;45531;-70
2023/05/01 06:14:53;;;;;;;;;10.33;9.00;;;;;20.87;50.39;101418.09;5021909;28;45495;-70
2023/05/01 06:17:18;;;;;;;;;12.50;10.50;;;;;20.90;49.75;101415.13;5035879;28;45399;-70
2023/05/01 06:19:44;;;;;;;;;11.50;9.25;;;;;20.92;49.91;101421.25;5032358;28;45683;-69
2023/05/01 06:22:09;;;;;;;;;9.00;9.00;;;;;20.86;49.79;101407.41;5029779;28;45678;-71
2023/05/01 06:24:35;;;;;;;;;10.75;10.75;;;;;20.94;50.28;101418.41;5029063;28;45983;-70
2023/05/01 06:27:01;;;;;;;;;12.00;8.25;;;;;20.95;49.95;101417.41;5030968;28;45956;-69
2023/05/01 06:29:26;;;;;;;;;9.50;9.00;;;;;20.96;50.25;101424.50;5033199;28;45520;-70
2023/05/01 06:31:51;;;;;;;;;12.00;10.50;;;;;20.98;49.85;101427.09;5025989;28;58039;-70
2023/05/01 06:34:16;;;;;;;;;10.00;8.33;;;;;20.98;49.86;101422.56;5035133;28;46225;-70
2023/05/01 06:36:42;;;;;;;;;10.25;8.00;;;;;21.00;50.27;101427.78;5029917;28;45389;-69
2023/05/01 06:39:07;;;;;;;;;12.00;11.75;;;;;20.98;50.00;101422.56;5026340;28;62879;-70
2023/05/01 06:41:34;;;;;;;;;12.25;10.50;;;;;20.99;50.01;101426.97;5030412;28;45723;-70
2023/05/01 06:44:00;;;;;;;;;8.00;8.00;;;;;21.04;49.84;101429.22;5034107;28;45773;-69
2023/05/01 06:46:25;;;;;;;;;8.00;6.00;;;;;21.03;49.99;101427.53;5030190;28;45762;-69
2023/05/01 06:48:51;;;;;;;;;6.67;6.67;;;;;21.04;49.75;101431.94;5031846;28;45557;-69
2023/05/01 06:51:16;;;;;;;;;10.50;10.25;;;;;21.05;49.93;101433.66;5025992;28;45607;-68
2023/05/01 06:53:42;;;;;;;;;10.00;8.00;;;;;21.06;50.11;101432.66;5022777;28;45621;-69
2023/05/01 06:56:07;;;;;;;;;9.00;8.67;;;;;21.06;50.11;101432.66;5022073;28;45569;-69
2023/05/01 06:58:33;;;;;;;;;12.33;9.00;;;;;21.07;49.64;101431.69;5037616;28;46168;-70
2023/05/01 07:00:58;;;;;;;;;10.50;10.50;;;;;21.06;49.66;101428.09;5031669;28;45633;-69
2023/05/01 07:03:26;;;;;;;;;9.00;9.00;;;;;21.10;49.80;101433.25;5036838;28;45459;-69
2023/05/01 07:05:52;;;;;;;;;11.00;9.33;;;;;21.06;50.04;101422.72;5031610;28;45640;-69
2023/05/01 07:08:17;;;;;;;;;10.00;9.67;;;;;21.11;49.46;101435.81;5034461;28;46198;-69
2023/05/01 07:10:42;;;;;;;;;10.50;10.50;;;;;21.11;50.10;101433.13;5032455;28;45387;-69
2023/05/01 07:13:08;;;;;;;;;12.75;12.50;;;;;21.11;48.88;101437.66;5036151;28;45406;-67
2023/05/01 07:15:33;;;;;;;;;17.00;15.50;;;;;21.08;49.08;101444.19;5032070;28;45627;-71
